Time;durP1;ratioP1;P1;durP2;ratioP2;P2;SDS_P1;SDS_P2;PMS_P1;PMS_P2;Temp;Humidity;BMP_temperature;BMP_pressure;BME280_temperature;BME280_humidity;BME280_pressure;Samples;Min_cycle;Max_cycle;Signal;HPM_P1;HPM_P2
2022/09/27 00:00:48;;;;;;;0.60;0.60;;;;;;;9.41;100.00;98371.38;6023344;29;20093;-88
2022/09/27 00:03:56;;;;;;;0.82;0.70;;;;;;;9.41;100.00;98371.38;6025127;29;20544;-88
2022/09/27 00:06:58;;;;;;;1.15;0.98;;;;;;;9.44;100.00;98363.31;6032713;29;20543;-88
2022/09/27 00:10:01;;;;;;;1.55;0.95;;;;;;;9.47;100.00;98364.75;6020200;29;20042;-89
2022/09/27 00:13:03;;;;;;;0.80;0.80;;;;;;;9.49;100.00;98360.22;6017438;29;20576;-89
2022/09/27 00:16:06;;;;;;;2.88;0.90;;;;;;;9.46;100.00;98360.56;6012988;29;20657;-89
2022/09/27 00:19:14;;;;;;;7.22;1.17;;;;;;;9.48;100.00;98369.75;6010683;29;20037;-89
2022/09/27 00:22:16;;;;;;;2.00;1.23;;;;;;;9.48;100.00;98366.34;6019128;29;20374;-89
2022/09/27 00:25:18;;;;;;;1.80;1.10;;;;;;;9.48;100.00;98364.56;6013343;29;20057;-87
2022/09/27 00:28:19;;;;;;;1.58;1.00;;;;;;;9.48;100.00;98356.03;6028795;29;20168;-88
2022/09/27 00:31:24;;;;;;;2.58;0.90;;;;;;;9.49;100.00;98345.53;6022428;29;20203;-88
2022/09/27 00:34:26;;;;;;;1.35;1.05;;;;;;;9.47;100.00;98351.84;6051069;29;20580;-89
2022/09/27 00:37:28;;;;;;;1.00;0.90;;;;;;;9.49;100.00;98353.28;6020300;29;20103;-90
2022/09/27 00:40:30;;;;;;;1.88;0.90;;;;;;;9.51;100.00;98354.88;6033509;29;20052;-89
2022/09/27 00:43:52;;;;;;;1.95;0.93;;;;;;;9.50;100.00;98354.09;6008455;29;20129;-89
2022/09/27 00:47:13;;;;;;;1.17;1.05;;;;;;;9.49;100.00;98347.31;6019917;29;20086;-88
2022/09/27 00:50:23;;;;;;;1.52;1.08;;;;;;;9.49;100.00;98349.91;6019835;29;20054;-89
2022/09/27 00:53:32;;;;;;;1.60;1.05;;;;;;;9.47;100.00;98344.09;6015953;29;20045;-88
2022/09/27 00:56:36;;;;;;;2.40;1.00;;;;;;;9.46;100.00;98334.72;6010727;29;20045;-89
2022/09/27 00:59:44;;;;;;;1.30;0.90;;;;;;;9.45;100.00;98331.34;6031070;29;20049;-88
2022/09/27 01:02:51;;;;;;;1.48;0.95;;;;;;;9.46;100.00;98326.97;6034080;29;20524;-88
2022/09/27 01:05:54;;;;;;;1.65;0.95;;;;;;;9.43;100.00;98335.06;6010484;29;20053;-88
2022/09/27 01:08:56;;;;;;;0.95;0.90;;;;;;;9.44;100.00;98331.50;6025244;29;20100;-89
2022/09/27 01:12:33;;;;;;;1.08;0.98;;;;;;;9.47;100.00;98336.34;6033247;29;20046;-89
2022/09/27 01:16:00;;;;;;;1.83;1.10;;;;;;;9.46;100.00;98334.72;6028805;29;20448;-89
2022/09/27 01:19:02;;;;;;;1.85;1.30;;;;;;;9.46;100.00;98332.94;6009885;29;20114;-89
2022/09/27 01:22:28;;;;;;;1.00;1.00;;;;;;;9.45;100.00;98325.38;6023851;29;20041;-89
2022/09/27 01:25:48;;;;;;;1.33;0.90;;;;;;;9.44;100.00;98316.84;6018100;29;20509;-89
2022/09/27 01:29:10;;;;;;;0.80;0.80;;;;;;;9.46;100.00;98327.78;6007522;29;20052;-88
2022/09/27 01:32:18;;;;;;;;;;;;;;;9.48;100.00;98323.25;6011316;29;20572;-89
2022/09/27 01:35:50;;;;;;;1.20;1.10;;;;;;;9.46;100.00;98321.81;6019225;29;19950;-89
2022/09/27 01:39:11;;;;;;;1.48;1.27;;;;;;;9.48;100.00;98322.47;6008998;29;20588;-89
2022/09/27 01:42:49;;;;;;;1.20;1.10;;;;;;;9.50;100.00;98323.09;6022150;29;20466;-89
2022/09/27 01:46:13;;;;;;;2.50;1.65;;;;;;;9.51;100.00;98322.13;6021508;29;21286;-88
2022/09/27 01:49:42;;;;;;;2.70;1.40;;;;;;;9.52;100.00;98320.34;6017370;29;20045;-88
2022/09/27 01:52:56;;;;;;;3.20;1.65;;;;;;;9.51;100.00;98319.53;6013313;29;20608;-89
2022/09/27 01:56:07;;;;;;;2.72;1.80;;;;;;;9.53;100.00;98327.13;6036440;29;20063;-90
2022/09/27 01:59:29;;;;;;;2.78;2.00;;;;;;;9.55;100.00;98323.41;6003662;29;20057;-89
2022/09/27 02:02:53;;;;;;;4.03;2.20;;;;;;;9.52;100.00;98315.19;6008002;29;20506;-89
2022/09/27 02:06:39;;;;;;;3.67;2.30;;;;;;;9.51;100.00;98313.56;6031034;29;20049;-90
2022/09/27 02:10:19;;;;;;;2.45;2.13;;;;;;;9.49;100.00;98306.00;6033712;29;20045;-89
2022/09/27 02:13:37;;;;;;;2.38;1.88;;;;;;;9.52;100.00;98310.03;6028880;29;20061;-89
2022/09/27 02:17:08;;;;;;;2.70;1.95;;;;;;;9.49;100.00;98306.00;6032679;29;20056;-89
2022/09/27 02:20:38;;;;;;;1.77;1.63;;;;;;;9.50;100.00;98299.84;6023536;29;20065;-89
2022/09/27 02:23:49;;;;;;;7.18;2.03;;;;;;;9.49;100.00;98303.41;6060352;29;20084;-90
2022/09/27 02:27:00;;;;;;;3.72;1.85;;;;;;;9.52;100.00;98299.69;6027485;29;20058;-90
2022/09/27 02:30:15;;;;;;;4.47;2.00;;;;;;;9.49;100.00;98300.84;6026658;29;20049;-91
2022/09/27 02:33:25;;;;;;;5.40;2.13;;;;;;;9.45;100.00;98291.81;6042320;29;20081;-90
2022/09/27 02:36:29;;;;;;;3.95;1.77;;;;;;;9.47;100.00;98295.03;6032109;29;20403;-91
2022/09/27 02:39:30;;;;;;;4.78;1.77;;;;;;;9.51;100.00;98298.06;6026977;29;20049;-90
2022/09/27 02:42:37;;;;;;;2.25;1.98;;;;;;;9.49;100.00;98290.50;6022200;29;20061;-90
2022/09/27 02:46:04;;;;;;;4.53;2.20;;;;;;;9.50;100.00;98292.09;6023584;29;20049;-90
2022/09/27 02:49:40;;;;;;;2.25;2.03;;;;;;;9.50;100.00;98297.28;6023069;29;20278;-90
2022/09/27 02:53:35;;;;;;;5.03;1.80;;;;;;;9.49;100.00;98296.47;6026714;29;20069;-91
2022/09/27 02:56:56;;;;;;;2.75;1.95;;;;;;;9.56;100.00;98293.19;6005941;29;20054;-91
2022/09/27 03:00:19;;;;;;;3.63;2.25;;;;;;;9.56;100.00;98299.16;6015905;29;20383;-90
2022/09/27 03:04:04;;;;;;;4.18;2.35;;;;;;;9.53;100.00;98294.34;6014868;29;20057;-90
2022/09/27 03:07:07;;;;;;;2.92;2.65;;;;;;;9.54;100.00;98295.13;5968000;29;20422;-90
2022/09/27 03:10:17;;;;;;;2.35;2.15;;;;;;;9.53;100.00;98293.53;5975128;29;20070;-89
2022/09/27 03:13:19;;;;;;;3.35;2.67;;;;;;;9.54;100.00;98295.13;5981806;29;20057;-90
2022/09/27 03:16:21;;;;;;;2.53;2.33;;;;;;;9.54;100.00;98297.72;5958088;29;20062;-90
2022/09/27 03:19:52;;;;;;;1.90;1.80;;;;;;;9.54;100.00;98298.56;5946487;29;20141;-90
2022/09/27 03:23:30;;;;;;;1.95;1.80;;;;;;;9.52;100.00;98302.28;5908349;30;20063;-90
2022/09/27 03:26:32;;;;;;;3.90;2.00;;;;;;;9.45;100.00;98295.19;5906339;30;20059;-89
2022/09/27 03:29:34;;;;;;;3.58;2.10;;;;;;;9.40;100.00;98294.91;5902369;30;20070;-90
2022/09/27 03:32:44;;;;;;;2.28;1.98;;;;;;;9.41;100.00;98293.91;5907977;30;20058;-90
2022/09/27 03:36:04;;;;;;;3.35;2.10;;;;;;;9.40;100.00;98294.09;5904267;30;20067;-90
2022/09/27 03:39:06;;;;;;;3.42;2.70;;;;;;;9.42;100.00;98302.50;5909867;30;20510;-91
2022/09/27 03:42:08;;;;;;;3.45;2.55;;;;;;;9.42;100.00;98300.69;5909578;30;20432;-90
2022/09/27 03:45:13;;;;;;;6.45;3.45;;;;;;;9.45;100.00;98304.72;5893465;30;20713;-92
2022/09/27 03:48:15;;;;;;;7.57;4.18;;;;;;;9.44;100.00;98301.34;5910488;30;20083;-90
2022/09/27 03:51:17;;;;;;;6.90;4.00;;;;;;;9.48;100.00;98299.22;5892918;30;20491;-93
2022/09/27 03:54:19;;;;;;;10.45;4.75;;;;;;;9.49;100.00;98300.84;5906029;30;20078;-92
2022/09/27 03:57:21;;;;;;;11.65;4.63;;;;;;;9.51;100.00;98298.88;5987330;29;20050;-93
2022/09/27 04:00:24;;;;;;;7.65;4.80;;;;;;;9.48;100.00;98297.44;6009660;29;20048;-93
2022/09/27 04:03:26;;;;;;;7.78;4.85;;;;;;;9.46;100.00;98303.75;6018752;29;20037;-92
2022/09/27 04:06:46;;;;;;;10.20;5.13;;;;;;;9.45;100.00;98305.53;6024366;29;20045;-92
2022/09/27 04:09:48;;;;;;;10.27;5.57;;;;;;;9.42;100.00;98311.03;6039079;29;20050;-91
2022/09/27 04:12:50;;;;;;;15.55;5.72;;;;;;;9.47;100.00;98313.13;6020553;29;20049;-92
2022/09/27 04:15:54;;;;;;;10.48;5.75;;;;;;;9.43;100.00;98314.41;6020383;29;20068;-93
2022/09/27 04:19:15;;;;;;;11.90;5.95;;;;;;;9.41;100.00;98308.59;6022072;29;20428;-92
2022/09/27 04:22:27;;;;;;;9.68;5.40;;;;;;;9.40;100.00;98315.56;6008608;29;20246;-93
2022/09/27 04:25:31;;;;;;;9.07;5.30;;;;;;;9.38;100.00;98309.75;6019227;29;20116;-91
2022/09/27 04:28:42;;;;;;;9.45;4.95;;;;;;;9.28;100.00;98320.28;6011295;29;20062;-93
2022/09/27 04:31:45;;;;;;;10.10;4.70;;;;;;;9.32;100.00;98314.81;5995411;29;20432;-92
2022/09/27 04:38:40;;;;;;;;;;;;;;;9.25;100.00;98315.44;5993128;29;20082;-92
2022/09/27 04:41:43;;;;;;;6.38;3.40;;;;;;;9.19;100.00;98316.13;5978907;29;19932;-94
2022/09/27 04:44:46;;;;;;;8.00;3.33;;;;;;;9.13;100.00;98321.94;5995036;29;20057;-93
2022/09/27 04:47:50;;;;;;;9.60;3.05;;;;;;;9.15;100.00;98325.16;5976648;29;20745;-94
2022/09/27 04:51:01;;;;;;;5.30;2.47;;;;;;;9.10;100.00;98324.88;5984993;29;20525;-93
2022/09/27 04:54:03;;;;;;;7.75;2.63;;;;;;;9.07;100.00;98335.53;5993369;29;20162;-93
2022/09/27 04:57:09;;;;;;;4.32;2.40;;;;;;;9.03;100.00;98332.44;5993793;29;20061;-94
2022/09/27 05:00:13;;;;;;;6.70;2.15;;;;;;;9.03;100.00;98341.97;5975175;29;20057;-91
2022/09/27 05:03:16;;;;;;;5.47;2.30;;;;;;;9.02;100.00;98328.28;5977742;29;20050;-93
2022/09/27 05:06:33;;;;;;;4.63;2.42;;;;;;;8.99;100.00;98335.53;5993233;29;20506;-93
2022/09/27 05:09:41;;;;;;;5.00;2.17;;;;;;;8.99;100.00;98340.69;5998953;29;20417;-93
2022/09/27 05:12:43;;;;;;;4.25;2.53;;;;;;;9.01;100.00;98334.38;6033235;29;20049;-95
2022/09/27 05:15:49;;;;;;;6.65;2.55;;;;;;;8.97;100.00;98340.88;6025006;29;20049;-94
2022/09/27 05:19:13;;;;;;;3.88;2.45;;;;;;;9.02;100.00;98342.97;6036808;29;20106;-94
2022/09/27 05:22:34;;;;;;;4.45;2.60;;;;;;;8.95;100.00;98345.38;6015749;29;20057;-94
2022/09/27 05:25:36;;;;;;;5.85;3.05;;;;;;;9.02;100.00;98346.34;6005465;29;20045;-93
2022/09/27 05:28:38;;;;;;;7.85;3.40;;;;;;;9.00;100.00;98344.91;6012767;29;20053;-93
2022/09/27 05:31:40;;;;;;;7.80;3.75;;;;;;;8.95;100.00;98349.75;6005329;29;20042;-92
2022/09/27 05:34:43;;;;;;;6.13;3.33;;;;;;;8.95;100.00;98358.28;6024904;29;20061;-95
2022/09/27 05:37:57;;;;;;;8.55;3.75;;;;;;;8.92;100.00;98356.03;6003785;29;20186;-94
2022/09/27 05:41:05;;;;;;;6.20;3.50;;;;;;;8.98;100.00;98359.72;6002205;29;20136;-95
2022/09/27 05:44:08;;;;;;;8.07;3.97;;;;;;;9.02;100.00;98361.03;6015246;29;20097;-92
2022/09/27 05:47:17;;;;;;;8.35;4.03;;;;;;;9.01;100.00;98367.13;6015508;29;20086;-94
2022/09/27 05:50:20;;;;;;;6.85;3.72;;;;;;;9.05;100.00;98365.84;6008733;29;20057;-94
2022/09/27 05:53:22;;;;;;;8.60;3.47;;;;;;;9.11;100.00;98370.34;6021780;29;20508;-95
2022/09/27 05:56:26;;;;;;;9.80;3.75;;;;;;;9.10;100.00;98368.75;6036242;29;20380;-94
2022/09/27 05:59:46;;;;;;;7.63;4.20;;;;;;;9.08;100.00;98370.66;6023076;29;20045;-93
2022/09/27 06:02:59;;;;;;;8.15;3.70;;;;;;;9.06;100.00;98372.59;6024741;29;20453;-95
2022/09/27 06:06:22;;;;;;;8.00;4.22;;;;;;;9.14;100.00;98379.53;6011598;29;20472;-93
2022/09/27 06:09:29;;;;;;;6.47;3.75;;;;;;;9.16;100.00;98380.97;6022331;29;20100;-95
2022/09/27 06:12:31;;;;;;;7.63;3.40;;;;;;;9.18;100.00;98385.97;6022636;29;20048;-93
2022/09/27 06:15:38;;;;;;;10.45;4.00;;;;;;;9.14;100.00;98380.34;6024166;29;20128;-94
2022/09/27 06:18:42;;;;;;;6.35;3.50;;;;;;;9.17;100.00;98385.19;6024927;29;20399;-94
2022/09/27 06:21:49;;;;;;;10.73;4.07;;;;;;;9.14;100.00;98389.84;6007447;29;20072;-95
2022/09/27 06:24:52;;;;;;;7.43;3.28;;;;;;;9.09;100.00;98392.91;6018871;29;20058;-95
2022/09/27 06:27:59;;;;;;;7.88;3.20;;;;;;;9.08;100.00;98393.91;6025958;29;20052;-95
2022/09/27 06:31:07;;;;;;;8.77;3.97;;;;;;;9.11;100.00;98387.59;6008215;29;20057;-95
2022/09/27 06:34:21;;;;;;;8.07;4.05;;;;;;;9.12;100.00;98389.19;6024102;29;20054;-95
2022/09/27 06:37:25;;;;;;;7.13;3.90;;;;;;;9.11;100.00;98401.31;6023773;29;20134;-96
2022/09/27 06:40:28;;;;;;;9.50;3.75;;;;;;;9.15;100.00;98389.69;6017243;29;20520;-93
2022/09/27 06:43:44;;;;;;;10.23;4.10;;;;;;;9.11;100.00;98405.66;6020599;29;20140;-92
2022/09/27 06:47:05;;;;;;;8.00;3.75;;;;;;;9.16;100.00;98403.41;6024081;29;20499;-94
2022/09/27 06:50:08;;;;;;;7.30;3.05;;;;;;;9.19;100.00;98410.81;6015619;29;20413;-94
2022/09/27 06:53:12;;;;;;;5.85;3.17;;;;;;;9.12;100.00;98415.84;6030859;29;20156;-93
2022/09/27 06:56:15;;;;;;;8.65;4.03;;;;;;;9.18;100.00;98425.50;6038798;29;20049;-94
2022/09/27 07:03:10;;;;;;;8.73;3.42;;;;;;;9.30;100.00;98425.16;6005459;29;20584;-94
2022/09/27 07:06:47;;;;;;;7.38;3.78;;;;;;;9.32;100.00;98425.81;5973270;29;20055;-93
2022/09/27 07:09:58;;;;;;;9.18;3.47;;;;;;;9.36;100.00;98432.22;5976900;29;20054;-92
2022/09/27 07:13:08;;;;;;;6.28;3.65;;;;;;;9.37;100.00;98441.63;5979446;29;20046;-92
2022/09/27 07:16:12;;;;;;;7.32;3.30;;;;;;;9.38;100.00;98440.63;5970186;29;20066;-92
2022/09/27 07:19:17;;;;;;;5.47;3.30;;;;;;;9.41;100.00;98433.34;5972004;29;20492;-91
2022/09/27 07:22:20;;;;;;;6.40;3.10;;;;;;;9.46;100.00;98450.94;5968793;29;20061;-92
2022/09/27 07:25:29;;;;;;;6.82;3.08;;;;;;;9.52;100.00;98454.66;5962382;29;20640;-92
2022/09/27 07:28:32;;;;;;;7.55;3.70;;;;;;;9.61;100.00;98451.84;5973642;29;20062;-91
2022/09/27 07:31:36;;;;;;;5.95;3.35;;;;;;;9.67;100.00;98460.72;5976012;29;20077;-91
2022/09/27 07:34:38;;;;;;;5.13;3.70;;;;;;;9.74;100.00;98468.59;5977202;29;20042;-92
2022/09/27 07:37:41;;;;;;;7.60;3.45;;;;;;;9.78;100.00;98475.06;5956302;29;20655;-91
2022/09/27 07:40:45;;;;;;;4.28;2.78;;;;;;;9.77;100.00;98469.09;5988915;29;20076;-91
2022/09/27 07:43:47;;;;;;;6.68;3.50;;;;;;;9.75;100.00;98475.41;6016664;29;20049;-92
2022/09/27 07:46:49;;;;;;;5.15;3.22;;;;;;;9.68;100.00;98488.16;6031677;29;20053;-92
2022/09/27 07:50:14;;;;;;;5.43;3.20;;;;;;;9.57;100.00;98479.00;5996574;29;20054;-92
2022/09/27 07:53:53;;;;;;;5.40;2.95;;;;;;;9.50;100.00;98488.38;5994252;29;20563;-94
2022/09/27 07:57:14;;;;;;;7.82;3.00;;;;;;;9.44;100.00;98487.25;6030037;29;20308;-91
2022/09/27 08:00:25;;;;;;;5.55;2.70;;;;;;;9.47;100.00;98496.47;6024526;29;20060;-90
2022/09/27 08:03:27;;;;;;;4.32;2.53;;;;;;;9.47;100.00;98496.47;6009985;29;20478;-91
2022/09/27 08:06:29;;;;;;;4.55;2.15;;;;;;;9.53;100.00;98498.38;6010092;29;20504;-91
2022/09/27 08:09:32;;;;;;;3.25;1.98;;;;;;;9.60;100.00;98504.50;6023803;29;20057;-90
2022/09/27 08:12:35;;;;;;;7.22;1.98;;;;;;;9.67;100.00;98507.22;6017517;29;20148;-90
2022/09/27 08:15:37;;;;;;;7.28;2.28;;;;;;;9.74;100.00;98513.34;6021406;29;20042;-92
2022/09/27 08:18:40;;;;;;;2.20;1.80;;;;;;;9.80;100.00;98511.88;6029192;29;20497;-89
2022/09/27 08:22:13;;;;;;;4.43;1.77;;;;;;;9.81;100.00;98516.91;6017076;29;20470;-90
2022/09/27 08:25:23;;;;;;;3.50;2.15;;;;;;;9.92;100.00;98519.09;6018865;29;20057;-90
2022/09/27 08:28:56;;;;;;;5.30;2.38;;;;;;;10.11;100.00;98532.59;6015368;29;20163;-90
2022/09/27 08:32:00;;;;;;;3.22;2.05;;;;;;;10.24;100.00;98535.47;6026258;29;20056;-90
2022/09/27 08:35:06;;;;;;;3.65;2.03;;;;;;;10.40;100.00;98549.34;6015306;29;20045;-88
2022/09/27 08:38:10;;;;;;;4.22;1.58;;;;;;;10.55;100.00;98543.25;6013779;29;20394;-90
2022/09/27 08:42:01;;;;;;;2.67;1.85;;;;;;;10.67;100.00;98551.44;6026772;29;20056;-89
2022/09/27 08:45:13;;;;;;;3.45;1.95;;;;;;;10.92;100.00;98546.13;5995932;29;20061;-89
2022/09/27 08:48:17;;;;;;;3.67;1.77;;;;;;;11.05;100.00;98555.91;6000110;29;20330;-91
2022/09/27 08:51:26;;;;;;;2.45;1.50;;;;;;;11.04;100.00;98570.63;5982310;29;20444;-90
2022/09/27 08:54:31;;;;;;;3.40;1.40;;;;;;;11.14;100.00;98555.69;5996813;29;20194;-89
2022/09/27 08:57:36;;;;;;;3.13;1.30;;;;;;;11.17;100.00;98554.53;6001346;29;20452;-90
2022/09/27 09:00:38;;;;;;;1.35;0.90;;;;;;;11.14;100.00;98562.66;5986021;29;20070;-89
2022/09/27 09:03:56;;;;;;;2.08;1.10;;;;;;;11.18;100.00;98553.56;6009446;29;20057;-90
2022/09/27 09:07:04;;;;;;;0.80;0.80;;;;;;;11.03;100.00;98563.88;6003636;29;20677;-89
2022/09/27 09:14:33;;;;;;;2.33;1.38;;;;;;;11.01;100.00;98570.19;6003031;29;20049;-89
2022/09/27 09:17:51;;;;;;;2.35;1.30;;;;;;;11.10;100.00;98569.13;5993719;29;20057;-90
2022/09/27 09:21:39;;;;;;;2.42;1.40;;;;;;;10.95;100.00;98575.06;6026766;29;20081;-88
2022/09/27 09:24:55;;;;;;;3.22;1.20;;;;;;;10.90;100.00;98574.75;6035141;29;20136;-90
2022/09/27 09:28:41;;;;;;;2.05;1.35;;;;;;;10.97;100.00;98582.66;6023991;29;20054;-89
2022/09/27 09:32:12;;;;;;;4.47;1.48;;;;;;;11.24;100.00;98583.94;6024694;29;20483;-90
2022/09/27 09:35:53;;;;;;;6.27;1.50;;;;;;;11.51;100.00;98566.25;6014861;29;20072;-90
2022/09/27 09:39:10;;;;;;;2.63;1.40;;;;;;;11.75;100.00;98572.97;5948165;29;20132;-88
2022/09/27 09:42:45;;;;;;;4.93;1.13;;;;;;;11.83;100.00;98572.91;5948103;29;20054;-89
2022/09/27 09:46:08;;;;;;;2.83;1.23;;;;;;;12.00;100.00;98579.56;5968320;29;20050;-89
2022/09/27 09:49:29;;;;;;;7.55;1.63;;;;;;;12.05;100.00;98576.44;5969817;29;20077;-89
2022/09/27 09:52:50;;;;;;;2.17;1.13;;;;;;;12.01;100.00;98577.78;5941500;29;20092;-89
2022/09/27 09:56:01;;;;;;;2.03;1.20;;;;;;;12.14;100.00;98583.13;5947843;29;20051;-89
2022/09/27 09:59:18;;;;;;;4.75;1.30;;;;;;;12.39;100.00;98573.28;5956968;29;20061;-89
2022/09/27 10:02:38;;;;;;;3.42;1.52;;;;;;;12.40;100.00;98572.31;5947804;29;20162;-88
2022/09/27 10:05:47;;;;;;;3.30;1.40;;;;;;;12.41;100.00;98568.72;5972575;29;20402;-89
2022/09/27 10:08:53;;;;;;;2.78;1.05;;;;;;;12.39;100.00;98572.47;5961257;29;20277;-88
2022/09/27 10:12:11;;;;;;;2.80;1.00;;;;;;;12.71;100.00;98569.44;5974897;29;20440;-88
2022/09/27 10:15:18;;;;;;;1.98;1.13;;;;;;;12.92;100.00;98575.69;6014779;29;20046;-88
2022/09/27 10:18:20;;;;;;;2.72;1.10;;;;;;;12.64;100.00;98570.38;6019802;29;20050;-89
2022/09/27 10:21:30;;;;;;;1.92;1.00;;;;;;;12.37;100.00;98582.22;6029218;29;20049;-88
2022/09/27 10:24:54;;;;;;;6.63;1.20;;;;;;;12.62;100.00;98574.94;6021360;29;20198;-88
2022/09/27 10:28:35;;;;;;;1.08;0.88;;;;;;;12.73;100.00;98578.88;6033044;29;20505;-88
2022/09/27 10:31:40;;;;;;;3.63;0.90;;;;;;;12.43;100.00;98565.94;6033374;29;20064;-88
2022/09/27 10:34:55;;;;;;;2.03;1.10;;;;;;;12.24;100.00;98575.88;6031618;29;20053;-89
2022/09/27 10:38:33;;;;;;;2.75;1.00;;;;;;;12.02;100.00;98589.75;6025149;29;20131;-91
2022/09/27 10:41:45;;;;;;;2.50;1.10;;;;;;;11.15;100.00;98590.13;6018518;29;20461;-96
2022/09/27 10:44:54;;;;;;;4.13;1.38;;;;;;;10.83;100.00;98586.81;6031365;29;20064;-93
2022/09/27 10:48:22;;;;;;;3.97;1.10;;;;;;;10.64;100.00;98587.22;6057774;29;20053;-95
2022/09/27 10:51:30;;;;;;;5.22;1.30;;;;;;;10.61;100.00;98587.53;6034197;29;20053;-96
2022/09/27 10:54:37;;;;;;;0.63;0.60;;;;;;;10.46;100.00;98575.34;6007352;29;20072;-94
2022/09/27 10:57:42;;;;;;;1.05;0.82;;;;;;;10.19;100.00;98573.97;6040276;29;20073;-96
2022/09/27 11:01:07;;;;;;;3.53;0.98;;;;;;;10.29;100.00;98571.22;6034779;29;20438;-94
2022/09/27 11:04:35;;;;;;;2.50;1.13;;;;;;;10.26;100.00;98580.06;6025537;29;20598;-95
2022/09/27 11:07:49;;;;;;;0.90;0.90;;;;;;;10.34;100.00;98577.47;6036549;29;20049;-95
2022/09/27 11:11:13;;;;;;;1.77;0.75;;;;;;;10.42;100.00;98574.06;6042059;29;20133;-96
2022/09/27 11:14:21;;;;;;;1.02;0.70;;;;;;;10.48;100.00;98585.50;6032238;29;20054;-93
2022/09/27 11:17:57;;;;;;;1.48;0.70;;;;;;;10.61;100.00;98585.78;6037154;29;20046;-92
2022/09/27 11:21:11;;;;;;;1.40;0.73;;;;;;;10.69;100.00;98587.53;6021409;29;20055;-93
2022/09/27 11:24:26;;;;;;;1.63;0.60;;;;;;;10.74;100.00;98593.78;6022437;29;20052;-93
2022/09/27 11:27:53;;;;;;;1.75;0.52;;;;;;;10.87;100.00;98600.19;6039797;29;20144;-91
2022/09/27 11:31:48;;;;;;;1.10;0.60;;;;;;;11.14;100.00;98589.34;6020610;29;20041;-91
2022/09/27 11:34:57;;;;;;;2.30;0.80;;;;;;;11.31;100.00;98604.78;6008696;29;20115;-91
2022/09/27 11:38:16;;;;;;;2.65;0.82;;;;;;;11.19;100.00;98604.38;6000123;29;20411;-90
2022/09/27 11:41:47;;;;;;;2.53;0.95;;;;;;;10.76;100.00;98624.69;5976623;29;20095;-95
2022/09/27 11:45:17;;;;;;;3.17;0.90;;;;;;;10.16;100.00;98614.84;6027121;29;20380;-95
2022/09/27 11:48:46;;;;;;;2.88;0.40;;;;;;;10.30;100.00;98614.19;6024576;29;20053;-92
2022/09/27 11:51:53;;;;;;;3.13;0.68;;;;;;;10.60;100.00;98615.19;6016858;29;20148;-93
2022/09/27 11:55:17;;;;;;;0.90;0.70;;;;;;;10.62;100.00;98607.28;6017716;29;20048;-94
2022/09/27 11:58:57;;;;;;;2.13;0.60;;;;;;;10.47;100.00;98612.34;6015555;29;20077;-93
2022/09/27 12:02:24;;;;;;;1.10;0.60;;;;;;;10.16;100.00;98632.94;6006320;29;20049;-92
2022/09/27 12:05:41;;;;;;;1.00;0.50;;;;;;;9.93;100.00;98664.63;6008622;29;20053;-92
2022/09/27 12:09:21;;;;;;;0.75;0.20;;;;;;;9.84;100.00;98635.41;6001065;29;20096;-92
2022/09/27 12:12:28;;;;;;;0.80;0.40;;;;;;;9.89;100.00;98647.84;5952446;29;20054;-90
2022/09/27 12:15:35;;;;;;;0.30;0.30;;;;;;;9.85;100.00;98660.28;5976451;29;20050;-90
2022/09/27 12:18:40;;;;;;;0.40;0.30;;;;;;;9.44;100.00;98649.97;5988047;29;20045;-95
2022/09/27 12:22:06;;;;;;;0.20;0.20;;;;;;;9.12;100.00;98661.03;5992504;29;20058;-95
2022/09/27 12:25:16;;;;;;;1.40;0.28;;;;;;;8.84;100.00;98666.44;5969324;29;20066;-96
2022/09/27 12:28:51;;;;;;;1.38;0.32;;;;;;;8.69;100.00;98659.44;5978017;29;20497;-95
2022/09/27 12:32:00;;;;;;;1.98;0.40;;;;;;;8.59;100.00;98657.78;5976049;29;20054;-95
2022/09/27 12:35:28;;;;;;;0.50;0.30;;;;;;;8.54;100.00;98651.47;5977358;29;20504;-94
2022/09/27 12:38:42;;;;;;;0.50;0.30;;;;;;;8.55;100.00;98655.69;5959157;29;20555;-93
2022/09/27 12:41:55;;;;;;;2.10;0.50;;;;;;;8.55;100.00;98664.22;5979432;29;20053;-93
2022/09/27 12:45:12;;;;;;;0.30;0.30;;;;;;;8.50;100.00;98661.31;5970368;29;20672;-93
2022/09/27 12:48:41;;;;;;;1.33;0.30;;;;;;;8.48;100.00;98662.41;5992480;29;20060;-94
2022/09/27 12:51:57;;;;;;;0.22;0.20;;;;;;;8.44;100.00;98658.50;6021028;29;20049;-93
2022/09/27 12:55:18;;;;;;;2.65;0.50;;;;;;;8.46;100.00;98657.41;6019858;29;20069;-93
2022/09/27 12:58:45;;;;;;;0.52;0.28;;;;;;;8.48;100.00;98660.63;6022662;29;20136;-91
2022/09/27 13:02:25;;;;;;;4.53;0.50;;;;;;;8.49;100.00;98659.66;6020681;29;20472;-91
2022/09/27 13:05:52;;;;;;;0.90;0.43;;;;;;;8.41;100.00;98660.44;6026893;29;20057;-92
2022/09/27 13:08:54;;;;;;;0.70;0.50;;;;;;;8.43;100.00;98654.34;6035113;29;20049;-92
2022/09/27 13:12:11;;;;;;;3.88;0.73;;;;;;;8.46;100.00;98654.03;6020471;29;20049;-91
2022/09/27 13:15:23;;;;;;;1.38;0.65;;;;;;;8.50;100.00;98656.16;6029005;29;20045;-90
2022/09/27 13:18:34;;;;;;;2.90;0.73;;;;;;;8.59;100.00;98656.97;6016808;29;20045;-91
2022/09/27 13:21:50;;;;;;;0.73;0.60;;;;;;;8.71;100.00;98654.94;6029782;29;20057;-90
2022/09/27 13:25:42;;;;;;;2.55;0.80;;;;;;;8.74;100.00;98658.00;6017675;29;20113;-92
2022/09/27 13:28:59;;;;;;;0.88;0.60;;;;;;;8.80;100.00;98672.06;6019292;29;20429;-90
2022/09/27 13:32:14;;;;;;;1.70;0.60;;;;;;;8.84;100.00;98658.69;6004470;29;20124;-91
2022/09/27 13:36:04;;;;;;;1.10;0.50;;;;;;;8.95;100.00;98669.69;6004801;29;20070;-90
2022/09/27 13:39:10;;;;;;;0.40;0.40;;;;;;;8.97;100.00;98672.94;5998859;29;20635;-90
2022/09/27 13:42:49;;;;;;;1.33;0.40;;;;;;;8.93;100.00;98669.84;6004013;29;20207;-91
2022/09/27 13:46:01;;;;;;;1.67;0.50;;;;;;;8.85;100.00;98667.25;5997848;29;20049;-91
2022/09/27 13:49:20;;;;;;;0.28;0.28;;;;;;;8.77;100.00;98662.88;6002037;29;20046;-91
2022/09/27 13:53:05;;;;;;;0.55;0.45;;;;;;;8.81;100.00;98659.00;6007515;29;20049;-91
2022/09/27 13:56:45;;;;;;;0.30;0.30;;;;;;;8.91;100.00;98668.38;6000619;29;20054;-90
2022/09/27 13:59:50;;;;;;;;;;;;;;;8.99;100.00;98661.50;5996808;29;20457;-91
2022/09/27 14:03:27;;;;;;;0.93;0.40;;;;;;;9.17;100.00;98669.13;6001166;29;19932;-90
2022/09/27 14:06:40;;;;;;;0.50;0.40;;;;;;;9.43;100.00;98660.44;5992581;29;20793;-90
2022/09/27 14:09:47;;;;;;;0.30;0.30;;;;;;;9.61;100.00;98663.66;5983907;29;20511;-91
2022/09/27 14:13:02;;;;;;;0.63;0.32;;;;;;;9.77;100.00;98656.91;5991893;29;20380;-91
2022/09/27 14:16:05;;;;;;;1.17;0.60;;;;;;;9.91;100.00;98662.22;6041309;29;20049;-90
2022/09/27 14:19:18;;;;;;;0.30;0.30;;;;;;;10.02;100.00;98668.03;6020201;29;20420;-90
2022/09/27 14:22:22;;;;;;;1.10;0.40;;;;;;;10.30;100.00;98668.50;5998399;29;20056;-92
2022/09/27 14:25:28;;;;;;;1.02;0.70;;;;;;;10.60;100.00;98676.50;6004901;29;20048;-92
2022/09/27 14:28:40;;;;;;;0.50;0.40;;;;;;;10.75;100.00;98667.06;6021950;29;20053;-91
2022/09/27 14:32:16;;;;;;;1.17;0.60;;;;;;;10.54;100.00;98677.97;6034406;29;20058;-91
2022/09/27 14:38:50;;;;;;;1.38;0.50;;;;;;;9.57;100.00;98726.97;6025465;29;20186;-92
2022/09/27 14:42:05;;;;;;;0.20;0.20;;;;;;;8.76;100.00;98732.66;6027885;29;20052;-91
2022/09/27 14:45:23;;;;;;;0.77;0.30;;;;;;;8.27;100.00;98712.50;6028471;29;20052;-92
2022/09/27 14:48:31;;;;;;;1.67;0.40;;;;;;;8.09;100.00;98714.34;6013536;29;20099;-90
2022/09/27 14:51:34;;;;;;;1.25;0.40;;;;;;;8.05;100.00;98721.56;6009634;29;20029;-91
2022/09/27 14:54:36;;;;;;;3.67;0.40;;;;;;;7.92;100.00;98713.38;6034018;29;20049;-91
2022/09/27 14:57:40;;;;;;;2.08;0.50;;;;;;;7.88;100.00;98714.66;6047173;29;20061;-92
2022/09/27 15:00:46;;;;;;;2.38;0.68;;;;;;;7.75;100.00;98697.00;6015057;29;20046;-94
2022/09/27 15:03:49;;;;;;;3.83;0.70;;;;;;;7.76;100.00;98706.34;6014354;29;20098;-95
2022/09/27 15:06:51;;;;;;;2.10;0.70;;;;;;;7.85;100.00;98697.75;6014846;29;20042;-94
2022/09/27 15:09:56;;;;;;;3.58;0.80;;;;;;;7.84;100.00;98711.56;6027778;29;20056;-96
2022/09/27 15:13:51;;;;;;;0.75;0.52;;;;;;;7.92;100.00;98718.53;6187852;23;20033;31
2022/09/27 15:17:21;;;;;;;0.65;0.50;;;;;;;8.02;100.00;98718.47;6050209;29;20200;-94
2022/09/27 15:20:26;;;;;;;0.82;0.50;;;;;;;8.07;100.00;98713.66;6029569;29;20049;-95
2022/09/27 15:23:41;;;;;;;1.75;0.43;;;;;;;8.27;100.00;98703.97;6047128;29;20083;-95
2022/09/27 15:26:46;;;;;;;1.10;0.50;;;;;;;8.39;100.00;98695.03;6043600;29;20419;-95